メインページ
METAR-TAF:

METAR-TAF

空港 :

エルサルバドル, エルサルバドル

エルサルバドル国際空港

緯度: 13-26N, 経度: 089-03W, 海抜: 25m

現時点の気象観測

当レポートは38分前の20:50(UTC)に作成
南/南西の風 5kt
気温 31°C
湿度 71%
気圧 1006 hPa
視程10km以上
高度2300ftの雲はほとんどない
高度3300ftの雲はほとんどない, 積乱雲.
近辺でにわか雨

METAR: MSLP 202050Z 21005KT 9999 VCSH FEW023 FEW033CB 31/25 Q1006 A2972 NOSIG

時間: 15:28 (21:28 UTC)

予報

当レポートは6時間3分前の15:25(UTC)に作成
予報は20日の 18時(UTC)から 21日の 18時(UTC)まで有効
南/南西の風 10kt
視程10km以上
高度2000ftの雲は散在している
高度3300ftの雲は散在している, 積乱雲.
21日の 00時(UTC)から 21日の 03時(UTC)まで一時的に
東/北東の風 10kt
視程: 5000m
高度2000ftの雲は散在している
高度3300ftの雲は散在している, 積乱雲.
高度4700ftの千切れ雲あり
激しい雷雨, 雨
21日の 0300時(UTC)から
変向風 3kt
視程10km以上
高度2000ftの雲はほとんどない
高度3300ftの雲はほとんどない, 積乱雲.

TAF: MSLP 201525Z 2018/2118 21010KT 9999 SCT020 SCT033CB TX34/2018Z TN23/2110Z TEMPO 2100/2103 06010KT 5000 TSRA SCT020 SCT033CB BKN047 FM210300 VRB03KT 9999 FEW020 FEW033CB

4,000以上の空港の気象観測と天気予報(METAR報とTAF報)

利用可能な観測所は地図上に黄色い丸と赤い丸で示す。

丸の上にカーソルを重ねると観測所名を参照できる。

次にクリックすると気象観測と天気予報を参照できる。

マップの切り替え:黒色「×」印の緑ボタンをクリックして拡大、「-」印の緑ボタンをクリックして縮小、緑色の三角印をクリックして隣りの地図に切り替え


METAR-TAF: